sensor_id;sensor_type;location;lat;lon;timestamp;noise_LAeq;noise_LA_min;noise_LA_max;noise_LA01;noise_LA95
77133;Laerm;26708;50.304;19.028;2023-07-16T00:00:15;49.05;46.41;51.43;;
77133;Laerm;26708;50.304;19.028;2023-07-16T00:02:25;49.11;46.66;51.57;;
77133;Laerm;26708;50.304;19.028;2023-07-16T00:04:31;50.25;46.70;69.11;;
77133;Laerm;26708;50.304;19.028;2023-07-16T00:06:35;50.77;46.51;62.92;;
77133;Laerm;26708;50.304;19.028;2023-07-16T00:18:30;48.72;46.30;51.60;;
77133;Laerm;26708;50.304;19.028;2023-07-16T00:21:41;49.63;46.87;59.51;;
77133;Laerm;26708;50.304;19.028;2023-07-16T00:24:26;48.81;46.04;51.90;;
77133;Laerm;26708;50.304;19.028;2023-07-16T00:27:12;48.86;46.57;56.16;;
77133;Laerm;26708;50.304;19.028;2023-07-16T00:29:39;48.56;46.46;50.51;;
77133;Laerm;26708;50.304;19.028;2023-07-16T00:31:44;48.84;46.66;50.78;;
77133;Laerm;26708;50.304;19.028;2023-07-16T00:33:49;48.85;46.53;50.95;;
77133;Laerm;26708;50.304;19.028;2023-07-16T00:35:55;48.77;46.48;51.69;;
77133;Laerm;26708;50.304;19.028;2023-07-16T00:38:00;49.00;46.43;51.26;;
77133;Laerm;26708;50.304;19.028;2023-07-16T00:40:07;48.64;46.20;51.00;;
77133;Laerm;26708;50.304;19.028;2023-07-16T00:42:16;48.80;46.40;51.46;;
77133;Laerm;26708;50.304;19.028;2023-07-16T00:44:21;48.88;46.60;51.97;;
77133;Laerm;26708;50.304;19.028;2023-07-16T00:46:24;48.75;46.39;51.83;;
77133;Laerm;26708;50.304;19.028;2023-07-16T00:48:31;48.67;45.94;50.91;;
77133;Laerm;26708;50.304;19.028;2023-07-16T00:50:38;48.48;46.16;50.62;;
77133;Laerm;26708;50.304;19.028;2023-07-16T00:52:43;48.50;46.26;50.44;;
77133;Laerm;26708;50.304;19.028;2023-07-16T00:55:06;48.52;46.44;50.93;;
77133;Laerm;26708;50.304;19.028;2023-07-16T00:57:11;48.56;46.31;50.80;;
77133;Laerm;26708;50.304;19.028;2023-07-16T00:59:19;48.81;46.36;51.74;;
77133;Laerm;26708;50.304;19.028;2023-07-16T01:01:28;48.54;46.27;50.72;;
77133;Laerm;26708;50.304;19.028;2023-07-16T01:03:33;48.55;46.55;50.70;;
77133;Laerm;26708;50.304;19.028;2023-07-16T01:05:51;48.49;46.06;50.72;;
77133;Laerm;26708;50.304;19.028;2023-07-16T01:08:53;48.46;45.71;50.69;;
77133;Laerm;26708;50.304;19.028;2023-07-16T01:11:38;50.02;46.33;63.08;;
77133;Laerm;26708;50.304;19.028;2023-07-16T01:14:51;48.79;46.46;51.78;;
77133;Laerm;26708;50.304;19.028;2023-07-16T01:17:33;48.55;45.95;50.79;;
77133;Laerm;26708;50.304;19.028;2023-07-16T01:20:18;48.76;46.16;53.65;;
77133;Laerm;26708;50.304;19.028;2023-07-16T01:23:08;48.93;46.72;52.97;;
77133;Laerm;26708;50.304;19.028;2023-07-16T01:25:53;48.74;46.07;51.30;;
77133;Laerm;26708;50.304;19.028;2023-07-16T01:30:57;48.44;46.13;50.70;;
77133;Laerm;26708;50.304;19.028;2023-07-16T01:33:05;48.57;46.44;51.45;;
77133;Laerm;26708;50.304;19.028;2023-07-16T01:35:14;48.60;46.39;50.96;;
77133;Laerm;26708;50.304;19.028;2023-07-16T01:37:19;48.61;46.34;50.97;;
77133;Laerm;26708;50.304;19.028;2023-07-16T01:39:25;48.83;46.62;51.07;;
77133;Laerm;26708;50.304;19.028;2023-07-16T01:41:30;48.79;46.46;50.99;;
77133;Laerm;26708;50.304;19.028;2023-07-16T01:46:53;48.54;45.83;50.65;;
77133;Laerm;26708;50.304;19.028;2023-07-16T01:52:50;48.78;46.22;52.63;;
77133;Laerm;26708;50.304;19.028;2023-07-16T01:55:22;49.54;46.27;56.00;;
77133;Laerm;26708;50.304;19.028;2023-07-16T01:57:38;48.95;45.91;61.39;;
77133;Laerm;26708;50.304;19.028;2023-07-16T01:59:58;48.63;46.38;52.03;;
77133;Laerm;26708;50.304;19.028;2023-07-16T02:06:16;48.40;46.16;51.20;;
77133;Laerm;26708;50.304;19.028;2023-07-16T02:11:16;48.48;46.39;50.58;;
77133;Laerm;26708;50.304;19.028;2023-07-16T02:13:30;48.79;45.86;57.66;;
77133;Laerm;26708;50.304;19.028;2023-07-16T02:15:42;52.83;45.92;68.55;;
77133;Laerm;26708;50.304;19.028;2023-07-16T02:17:52;48.45;46.29;53.28;;
77133;Laerm;26708;50.304;19.028;2023-07-16T02:20:10;48.56;45.95;51.66;;
77133;Laerm;26708;50.304;19.028;2023-07-16T02:22:27;48.70;46.23;51.67;;
77133;Laerm;26708;50.304;19.028;2023-07-16T02:24:39;48.67;46.18;52.77;;
77133;Laerm;26708;50.304;19.028;2023-07-16T02:26:49;48.58;46.14;52.89;;
77133;Laerm;26708;50.304;19.028;2023-07-16T02:28:52;48.92;46.38;55.31;;
77133;Laerm;26708;50.304;19.028;2023-07-16T02:31:00;48.59;46.30;50.95;;
77133;Laerm;26708;50.304;19.028;2023-07-16T02:33:07;48.71;46.12;50.77;;
77133;Laerm;26708;50.304;19.028;2023-07-16T02:35:15;48.49;46.07;50.67;;
77133;Laerm;26708;50.304;19.028;2023-07-16T02:37:25;48.52;45.98;50.70;;
77133;Laerm;26708;50.304;19.028;2023-07-16T02:39:52;50.55;46.37;65.83;;
77133;Laerm;26708;50.304;19.028;2023-07-16T02:42:05;48.48;46.27;50.86;;
77133;Laerm;26708;50.304;19.028;2023-07-16T02:44:25;48.80;46.19;59.83;;
77133;Laerm;26708;50.304;19.028;2023-07-16T02:46:59;48.81;46.04;60.87;;
77133;Laerm;26708;50.304;19.028;2023-07-16T02:54:06;48.85;46.39;56.64;;
77133;Laerm;26708;50.304;19.028;2023-07-16T02:59:04;50.12;47.09;65.39;;
77133;Laerm;26708;50.304;19.028;2023-07-16T03:01:12;53.19;46.61;70.47;;
77133;Laerm;26708;50.304;19.028;2023-07-16T03:03:19;49.73;46.69;63.60;;
77133;Laerm;26708;50.304;19.028;2023-07-16T03:05:24;48.94;46.63;53.71;;
77133;Laerm;26708;50.304;19.028;2023-07-16T03:07:32;48.56;46.47;57.37;;
77133;Laerm;26708;50.304;19.028;2023-07-16T03:09:41;48.67;45.98;50.77;;
77133;Laerm;26708;50.304;19.028;2023-07-16T03:11:46;50.26;46.81;61.80;;
77133;Laerm;26708;50.304;19.028;2023-07-16T03:13:55;56.50;46.55;74.65;;
77133;Laerm;26708;50.304;19.028;2023-07-16T03:16:05;48.59;46.26;51.81;;
77133;Laerm;26708;50.304;19.028;2023-07-16T03:18:11;48.64;46.43;52.46;;
77133;Laerm;26708;50.304;19.028;2023-07-16T03:20:18;52.70;46.32;68.88;;
77133;Laerm;26708;50.304;19.028;2023-07-16T03:22:24;51.64;46.01;67.18;;
77133;Laerm;26708;50.304;19.028;2023-07-16T03:24:33;48.96;46.30;52.99;;
77133;Laerm;26708;50.304;19.028;2023-07-16T03:26:42;48.63;45.84;51.33;;
77133;Laerm;26708;50.304;19.028;2023-07-16T03:28:49;48.74;46.26;60.08;;
77133;Laerm;26708;50.304;19.028;2023-07-16T03:36:14;48.71;46.25;51.13;;
77133;Laerm;26708;50.304;19.028;2023-07-16T03:39:08;48.61;46.21;52.24;;
77133;Laerm;26708;50.304;19.028;2023-07-16T03:47:49;48.77;46.35;50.96;;
77133;Laerm;26708;50.304;19.028;2023-07-16T03:52:52;48.82;46.69;51.39;;
77133;Laerm;26708;50.304;19.028;2023-07-16T03:55:46;48.83;45.95;59.08;;
77133;Laerm;26708;50.304;19.028;2023-07-16T03:58:12;48.76;46.19;51.67;;
77133;Laerm;26708;50.304;19.028;2023-07-16T04:00:43;49.61;46.42;67.09;;
77133;Laerm;26708;50.304;19.028;2023-07-16T04:03:13;49.30;46.12;59.51;;
77133;Laerm;26708;50.304;19.028;2023-07-16T04:05:39;51.78;45.69;72.24;;
77133;Laerm;26708;50.304;19.028;2023-07-16T04:08:09;48.78;46.30;56.69;;
77133;Laerm;26708;50.304;19.028;2023-07-16T04:10:20;49.05;46.45;64.01;;
77133;Laerm;26708;50.304;19.028;2023-07-16T04:12:57;48.88;45.90;55.50;;
77133;Laerm;26708;50.304;19.028;2023-07-16T04:15:08;48.97;46.11;58.83;;
77133;Laerm;26708;50.304;19.028;2023-07-16T04:17:17;48.60;46.09;52.32;;
77133;Laerm;26708;50.304;19.028;2023-07-16T04:19:24;48.89;45.95;51.07;;
77133;Laerm;26708;50.304;19.028;2023-07-16T04:21:38;48.80;46.11;54.15;;
77133;Laerm;26708;50.304;19.028;2023-07-16T04:23:53;49.80;46.32;62.07;;
77133;Laerm;26708;50.304;19.028;2023-07-16T04:26:00;54.41;46.02;69.07;;
77133;Laerm;26708;50.304;19.028;2023-07-16T04:28:06;54.29;46.71;72.05;;
77133;Laerm;26708;50.304;19.028;2023-07-16T04:30:25;53.25;46.94;69.00;;
77133;Laerm;26708;50.304;19.028;2023-07-16T04:32:38;53.38;47.20;69.90;;
77133;Laerm;26708;50.304;19.028;2023-07-16T04:34:59;50.47;46.82;61.86;;
77133;Laerm;26708;50.304;19.028;2023-07-16T04:38:00;50.44;46.40;65.65;;
77133;Laerm;26708;50.304;19.028;2023-07-16T04:43:02;49.56;46.46;69.31;;
77133;Laerm;26708;50.304;19.028;2023-07-16T04:46:17;52.82;46.77;67.61;;
77133;Laerm;26708;50.304;19.028;2023-07-16T04:49:13;50.77;46.68;64.50;;
77133;Laerm;26708;50.304;19.028;2023-07-16T04:54:47;52.19;46.51;69.95;;
77133;Laerm;26708;50.304;19.028;2023-07-16T04:56:53;49.50;46.32;58.72;;
77133;Laerm;26708;50.304;19.028;2023-07-16T04:58:58;50.62;46.33;70.80;;
77133;Laerm;26708;50.304;19.028;2023-07-16T05:01:03;53.52;47.53;74.01;;
77133;Laerm;26708;50.304;19.028;2023-07-16T05:03:09;57.02;50.29;66.20;;
77133;Laerm;26708;50.304;19.028;2023-07-16T05:05:17;52.59;46.87;65.36;;
77133;Laerm;26708;50.304;19.028;2023-07-16T05:15:52;48.80;46.59;51.17;;
77133;Laerm;26708;50.304;19.028;2023-07-16T05:18:58;49.22;46.54;59.31;;
77133;Laerm;26708;50.304;19.028;2023-07-16T05:21:12;49.77;46.11;61.64;;
77133;Laerm;26708;50.304;19.028;2023-07-16T05:23:19;50.29;46.93;62.08;;
77133;Laerm;26708;50.304;19.028;2023-07-16T05:25:36;48.74;46.56;50.83;;
77133;Laerm;26708;50.304;19.028;2023-07-16T05:27:43;49.36;46.60;56.01;;
77133;Laerm;26708;50.304;19.028;2023-07-16T05:29:49;49.73;46.80;65.24;;
77133;Laerm;26708;50.304;19.028;2023-07-16T05:32:18;54.07;47.11;67.30;;
77133;Laerm;26708;50.304;19.028;2023-07-16T05:34:24;49.53;46.48;60.33;;
77133;Laerm;26708;50.304;19.028;2023-07-16T05:36:33;48.99;46.16;53.80;;
77133;Laerm;26708;50.304;19.028;2023-07-16T05:38:35;52.51;46.75;68.74;;
77133;Laerm;26708;50.304;19.028;2023-07-16T05:40:40;49.21;46.89;56.96;;
77133;Laerm;26708;50.304;19.028;2023-07-16T05:42:45;49.76;46.99;66.02;;
77133;Laerm;26708;50.304;19.028;2023-07-16T05:44:49;54.86;46.49;70.19;;
77133;Laerm;26708;50.304;19.028;2023-07-16T05:46:55;50.04;46.52;63.04;;
77133;Laerm;26708;50.304;19.028;2023-07-16T05:48:59;48.84;46.09;52.28;;
77133;Laerm;26708;50.304;19.028;2023-07-16T05:51:04;49.31;46.79;61.06;;
77133;Laerm;26708;50.304;19.028;2023-07-16T05:53:12;51.63;46.81;68.05;;
77133;Laerm;26708;50.304;19.028;2023-07-16T05:55:17;48.88;46.24;51.52;;
77133;Laerm;26708;50.304;19.028;2023-07-16T05:57:22;50.33;46.53;67.61;;
77133;Laerm;26708;50.304;19.028;2023-07-16T05:59:27;51.43;46.99;67.06;;
77133;Laerm;26708;50.304;19.028;2023-07-16T06:01:35;50.72;48.58;53.32;;
77133;Laerm;26708;50.304;19.028;2023-07-16T06:03:40;53.43;48.13;70.26;;
77133;Laerm;26708;50.304;19.028;2023-07-16T06:05:45;49.90;47.85;56.68;;
77133;Laerm;26708;50.304;19.028;2023-07-16T06:07:50;50.16;47.80;59.04;;
77133;Laerm;26708;50.304;19.028;2023-07-16T06:09:57;52.15;46.50;65.97;;
77133;Laerm;26708;50.304;19.028;2023-07-16T06:12:04;50.78;46.86;63.94;;
77133;Laerm;26708;50.304;19.028;2023-07-16T06:14:08;51.00;46.71;64.30;;
77133;Laerm;26708;50.304;19.028;2023-07-16T06:16:13;49.82;46.48;57.82;;
77133;Laerm;26708;50.304;19.028;2023-07-16T06:18:18;49.72;46.44;61.46;;
77133;Laerm;26708;50.304;19.028;2023-07-16T06:20:23;51.04;46.68;65.21;;
77133;Laerm;26708;50.304;19.028;2023-07-16T06:22:27;49.45;47.34;52.15;;
77133;Laerm;26708;50.304;19.028;2023-07-16T06:24:33;51.11;47.01;62.02;;
77133;Laerm;26708;50.304;19.028;2023-07-16T06:26:40;49.25;46.57;54.84;;
77133;Laerm;26708;50.304;19.028;2023-07-16T06:28:44;62.77;47.21;75.41;;
77133;Laerm;26708;50.304;19.028;2023-07-16T06:30:51;70.23;56.00;76.93;;
77133;Laerm;26708;50.304;19.028;2023-07-16T06:32:56;54.96;48.84;65.91;;
77133;Laerm;26708;50.304;19.028;2023-07-16T06:35:01;50.51;47.15;62.80;;
77133;Laerm;26708;50.304;19.028;2023-07-16T06:37:06;53.20;46.62;69.48;;
77133;Laerm;26708;50.304;19.028;2023-07-16T06:39:30;51.82;47.26;65.71;;
77133;Laerm;26708;50.304;19.028;2023-07-16T06:41:35;49.76;46.82;63.05;;
77133;Laerm;26708;50.304;19.028;2023-07-16T06:43:47;49.58;46.91;53.12;;
77133;Laerm;26708;50.304;19.028;2023-07-16T06:45:51;52.50;46.84;65.70;;
77133;Laerm;26708;50.304;19.028;2023-07-16T06:47:56;52.37;46.81;68.03;;
77133;Laerm;26708;50.304;19.028;2023-07-16T06:50:01;50.16;47.45;55.93;;
77133;Laerm;26708;50.304;19.028;2023-07-16T06:52:07;50.01;47.69;54.91;;
77133;Laerm;26708;50.304;19.028;2023-07-16T06:54:12;52.21;47.39;66.10;;
77133;Laerm;26708;50.304;19.028;2023-07-16T06:56:17;49.65;46.97;53.91;;
77133;Laerm;26708;50.304;19.028;2023-07-16T06:58:31;49.56;47.16;55.77;;
77133;Laerm;26708;50.304;19.028;2023-07-16T07:00:39;51.25;47.58;63.69;;
77133;Laerm;26708;50.304;19.028;2023-07-16T07:02:45;49.92;47.49;52.29;;
77133;Laerm;26708;50.304;19.028;2023-07-16T07:04:50;50.04;47.59;55.15;;
77133;Laerm;26708;50.304;19.028;2023-07-16T07:06:55;52.24;47.58;65.97;;
77133;Laerm;26708;50.304;19.028;2023-07-16T07:09:03;49.81;47.28;55.70;;
77133;Laerm;26708;50.304;19.028;2023-07-16T07:11:09;55.79;47.10;68.58;;
77133;Laerm;26708;50.304;19.028;2023-07-16T07:13:18;51.28;47.41;64.35;;
77133;Laerm;26708;50.304;19.028;2023-07-16T07:15:24;51.29;46.91;63.00;;
77133;Laerm;26708;50.304;19.028;2023-07-16T07:17:31;50.42;47.54;54.68;;
77133;Laerm;26708;50.304;19.028;2023-07-16T07:19:36;54.13;48.09;68.84;;
77133;Laerm;26708;50.304;19.028;2023-07-16T07:21:42;49.64;46.74;55.69;;
77133;Laerm;26708;50.304;19.028;2023-07-16T07:24:00;51.98;47.42;65.72;;
77133;Laerm;26708;50.304;19.028;2023-07-16T07:26:24;53.37;47.19;69.60;;
77133;Laerm;26708;50.304;19.028;2023-07-16T07:28:30;69.88;58.60;77.06;;
77133;Laerm;26708;50.304;19.028;2023-07-16T07:30:35;55.23;48.11;69.00;;
77133;Laerm;26708;50.304;19.028;2023-07-16T07:32:47;54.81;49.33;68.85;;
77133;Laerm;26708;50.304;19.028;2023-07-16T07:45:51;51.90;48.10;63.20;;
77133;Laerm;26708;50.304;19.028;2023-07-16T07:48:35;54.33;48.64;70.62;;
77133;Laerm;26708;50.304;19.028;2023-07-16T07:50:46;51.67;47.99;63.86;;
77133;Laerm;26708;50.304;19.028;2023-07-16T07:53:05;57.29;48.42;78.21;;
77133;Laerm;26708;50.304;19.028;2023-07-16T07:55:13;53.23;48.40;65.81;;
77133;Laerm;26708;50.304;19.028;2023-07-16T07:57:51;53.66;47.87;66.06;;
77133;Laerm;26708;50.304;19.028;2023-07-16T08:00:38;53.35;48.41;66.26;;
77133;Laerm;26708;50.304;19.028;2023-07-16T08:05:59;53.84;48.42;68.33;;
77133;Laerm;26708;50.304;19.028;2023-07-16T08:08:17;53.57;48.14;68.47;;
77133;Laerm;26708;50.304;19.028;2023-07-16T08:10:30;55.38;48.02;71.93;;
77133;Laerm;26708;50.304;19.028;2023-07-16T08:12:59;51.32;47.76;58.70;;
77133;Laerm;26708;50.304;19.028;2023-07-16T08:17:49;50.93;47.64;60.09;;
77133;Laerm;26708;50.304;19.028;2023-07-16T08:20:40;51.19;48.64;54.10;;
77133;Laerm;26708;50.304;19.028;2023-07-16T08:22:55;53.06;48.99;67.86;;
77133;Laerm;26708;50.304;19.028;2023-07-16T08:28:16;54.83;48.91;70.20;;
77133;Laerm;26708;50.304;19.028;2023-07-16T08:31:05;51.57;48.76;55.59;;
77133;Laerm;26708;50.304;19.028;2023-07-16T08:33:20;54.85;48.81;67.50;;
77133;Laerm;26708;50.304;19.028;2023-07-16T08:36:07;55.70;49.25;69.59;;
77133;Laerm;26708;50.304;19.028;2023-07-16T08:38:19;52.28;48.60;63.34;;
77133;Laerm;26708;50.304;19.028;2023-07-16T08:40:26;51.58;48.76;57.58;;
77133;Laerm;26708;50.304;19.028;2023-07-16T08:42:37;53.55;49.47;65.26;;
77133;Laerm;26708;50.304;19.028;2023-07-16T08:44:44;51.70;49.25;59.74;;
77133;Laerm;26708;50.304;19.028;2023-07-16T08:46:54;53.02;48.63;64.65;;
77133;Laerm;26708;50.304;19.028;2023-07-16T08:49:17;51.76;48.47;58.29;;
77133;Laerm;26708;50.304;19.028;2023-07-16T08:51:49;53.43;49.16;66.42;;
77133;Laerm;26708;50.304;19.028;2023-07-16T08:59:47;52.81;49.16;63.84;;
77133;Laerm;26708;50.304;19.028;2023-07-16T09:03:13;54.46;49.48;68.06;;
77133;Laerm;26708;50.304;19.028;2023-07-16T09:15:18;52.28;48.41;65.37;;
77133;Laerm;26708;50.304;19.028;2023-07-16T09:20:27;54.43;48.80;68.40;;
77133;Laerm;26708;50.304;19.028;2023-07-16T09:22:53;53.29;48.76;67.40;;
77133;Laerm;26708;50.304;19.028;2023-07-16T09:25:21;51.82;48.66;60.04;;
77133;Laerm;26708;50.304;19.028;2023-07-16T09:27:30;54.97;49.00;69.25;;
77133;Laerm;26708;50.304;19.028;2023-07-16T09:29:39;52.80;49.08;66.81;;
77133;Laerm;26708;50.304;19.028;2023-07-16T09:31:58;53.52;49.49;63.28;;
77133;Laerm;26708;50.304;19.028;2023-07-16T09:40:02;53.89;48.98;67.77;;
77133;Laerm;26708;50.304;19.028;2023-07-16T09:42:44;53.57;49.01;70.60;;
77133;Laerm;26708;50.304;19.028;2023-07-16T09:45:36;52.97;48.64;65.32;;
77133;Laerm;26708;50.304;19.028;2023-07-16T09:48:03;53.42;48.89;68.89;;
77133;Laerm;26708;50.304;19.028;2023-07-16T10:01:22;58.54;49.33;71.15;;
77133;Laerm;26708;50.304;19.028;2023-07-16T10:03:49;55.01;48.52;68.46;;
77133;Laerm;26708;50.304;19.028;2023-07-16T10:06:06;52.02;48.95;60.88;;
77133;Laerm;26708;50.304;19.028;2023-07-16T10:08:23;56.21;49.04;71.75;;
77133;Laerm;26708;50.304;19.028;2023-07-16T10:10:42;55.27;48.87;70.46;;
77133;Laerm;26708;50.304;19.028;2023-07-16T10:13:02;53.84;49.21;65.52;;
77133;Laerm;26708;50.304;19.028;2023-07-16T10:15:12;54.20;49.41;68.25;;
77133;Laerm;26708;50.304;19.028;2023-07-16T10:17:21;59.96;48.64;88.85;;
77133;Laerm;26708;50.304;19.028;2023-07-16T10:19:28;56.56;49.07;73.32;;
77133;Laerm;26708;50.304;19.028;2023-07-16T10:21:37;55.47;48.83;72.72;;
77133;Laerm;26708;50.304;19.028;2023-07-16T10:23:46;51.34;48.65;53.76;;
77133;Laerm;26708;50.304;19.028;2023-07-16T10:26:01;52.71;48.89;65.32;;
77133;Laerm;26708;50.304;19.028;2023-07-16T10:28:08;54.95;49.34;68.13;;
77133;Laerm;26708;50.304;19.028;2023-07-16T10:30:14;52.92;48.87;64.61;;
77133;Laerm;26708;50.304;19.028;2023-07-16T10:32:20;52.11;49.55;66.71;;
77133;Laerm;26708;50.304;19.028;2023-07-16T10:34:29;52.55;49.51;62.97;;
77133;Laerm;26708;50.304;19.028;2023-07-16T10:36:37;53.66;49.29;67.66;;
77133;Laerm;26708;50.304;19.028;2023-07-16T10:38:42;53.29;49.23;66.16;;
77133;Laerm;26708;50.304;19.028;2023-07-16T10:40:46;55.01;49.35;71.51;;
77133;Laerm;26708;50.304;19.028;2023-07-16T10:42:53;51.60;49.03;57.05;;
77133;Laerm;26708;50.304;19.028;2023-07-16T10:45:00;53.72;48.70;68.48;;
77133;Laerm;26708;50.304;19.028;2023-07-16T10:47:06;53.36;48.97;65.53;;
77133;Laerm;26708;50.304;19.028;2023-07-16T10:49:11;53.97;48.95;66.16;;
77133;Laerm;26708;50.304;19.028;2023-07-16T10:51:28;54.61;48.69;66.08;;
77133;Laerm;26708;50.304;19.028;2023-07-16T10:53:41;56.31;49.26;68.97;;
77133;Laerm;26708;50.304;19.028;2023-07-16T10:55:46;53.89;49.06;68.92;;
77133;Laerm;26708;50.304;19.028;2023-07-16T10:57:51;54.61;49.73;64.84;;
77133;Laerm;26708;50.304;19.028;2023-07-16T10:59:59;55.80;48.96;72.68;;
77133;Laerm;26708;50.304;19.028;2023-07-16T11:02:11;51.77;48.94;56.53;;
77133;Laerm;26708;50.304;19.028;2023-07-16T11:04:34;51.60;48.80;54.75;;
77133;Laerm;26708;50.304;19.028;2023-07-16T11:07:32;54.97;48.59;70.53;;
77133;Laerm;26708;50.304;19.028;2023-07-16T11:09:48;52.81;49.09;60.84;;
77133;Laerm;26708;50.304;19.028;2023-07-16T11:12:09;52.94;49.16;63.51;;
77133;Laerm;26708;50.304;19.028;2023-07-16T11:14:19;58.46;49.81;68.00;;
77133;Laerm;26708;50.304;19.028;2023-07-16T11:16:21;56.11;49.17;66.47;;
77133;Laerm;26708;50.304;19.028;2023-07-16T11:18:26;55.81;49.53;69.28;;
77133;Laerm;26708;50.304;19.028;2023-07-16T11:20:32;59.13;49.66;73.14;;
77133;Laerm;26708;50.304;19.028;2023-07-16T11:22:40;52.82;48.81;61.03;;
77133;Laerm;26708;50.304;19.028;2023-07-16T11:24:46;53.92;49.29;63.99;;
77133;Laerm;26708;50.304;19.028;2023-07-16T11:26:54;54.77;49.84;70.47;;
77133;Laerm;26708;50.304;19.028;2023-07-16T11:28:56;53.82;49.05;64.88;;
77133;Laerm;26708;50.304;19.028;2023-07-16T11:31:10;53.59;49.11;64.54;;
77133;Laerm;26708;50.304;19.028;2023-07-16T11:33:16;56.54;49.74;68.51;;
77133;Laerm;26708;50.304;19.028;2023-07-16T11:35:21;54.56;49.50;67.70;;
77133;Laerm;26708;50.304;19.028;2023-07-16T11:37:30;57.48;49.64;71.30;;
77133;Laerm;26708;50.304;19.028;2023-07-16T11:39:40;51.53;48.91;58.02;;
77133;Laerm;26708;50.304;19.028;2023-07-16T11:41:54;56.53;49.38;70.87;;
77133;Laerm;26708;50.304;19.028;2023-07-16T11:44:00;52.33;49.46;62.16;;
77133;Laerm;26708;50.304;19.028;2023-07-16T11:46:16;54.06;49.08;62.49;;
77133;Laerm;26708;50.304;19.028;2023-07-16T11:48:20;54.34;48.95;66.06;;
77133;Laerm;26708;50.304;19.028;2023-07-16T11:50:25;51.74;48.97;59.74;;
77133;Laerm;26708;50.304;19.028;2023-07-16T11:52:31;54.40;49.03;69.40;;
77133;Laerm;26708;50.304;19.028;2023-07-16T11:57:17;53.53;49.27;67.41;;
77133;Laerm;26708;50.304;19.028;2023-07-16T11:59:28;53.32;49.20;67.84;;
77133;Laerm;26708;50.304;19.028;2023-07-16T12:01:35;56.09;49.56;66.68;;
77133;Laerm;26708;50.304;19.028;2023-07-16T12:04:45;53.54;49.51;62.20;;
77133;Laerm;26708;50.304;19.028;2023-07-16T12:07:07;54.19;48.76;69.25;;
77133;Laerm;26708;50.304;19.028;2023-07-16T12:09:12;54.80;49.03;69.70;;
77133;Laerm;26708;50.304;19.028;2023-07-16T12:11:17;56.56;49.76;68.42;;
77133;Laerm;26708;50.304;19.028;2023-07-16T12:13:25;52.38;48.71;60.34;;
77133;Laerm;26708;50.304;19.028;2023-07-16T12:15:30;53.07;48.86;64.20;;
77133;Laerm;26708;50.304;19.028;2023-07-16T12:17:35;53.16;48.83;66.51;;
77133;Laerm;26708;50.304;19.028;2023-07-16T12:19:41;51.67;48.76;55.71;;
77133;Laerm;26708;50.304;19.028;2023-07-16T12:21:46;54.03;49.47;66.60;;
77133;Laerm;26708;50.304;19.028;2023-07-16T12:23:50;54.89;48.66;70.48;;
77133;Laerm;26708;50.304;19.028;2023-07-16T12:26:15;53.60;49.15;66.12;;
77133;Laerm;26708;50.304;19.028;2023-07-16T12:28:20;53.10;47.86;66.97;;
77133;Laerm;26708;50.304;19.028;2023-07-16T12:30:29;51.71;49.06;62.79;;
77133;Laerm;26708;50.304;19.028;2023-07-16T12:32:35;55.49;49.25;65.98;;
77133;Laerm;26708;50.304;19.028;2023-07-16T12:34:40;53.96;49.02;75.97;;
77133;Laerm;26708;50.304;19.028;2023-07-16T12:36:48;52.24;49.02;62.01;;
77133;Laerm;26708;50.304;19.028;2023-07-16T12:39:03;54.90;49.19;68.67;;
77133;Laerm;26708;50.304;19.028;2023-07-16T12:41:16;53.02;49.06;64.89;;
77133;Laerm;26708;50.304;19.028;2023-07-16T12:43:20;53.18;49.52;64.03;;
77133;Laerm;26708;50.304;19.028;2023-07-16T12:45:28;53.18;49.29;64.36;;
77133;Laerm;26708;50.304;19.028;2023-07-16T12:47:33;54.43;49.45;66.94;;
77133;Laerm;26708;50.304;19.028;2023-07-16T12:49:40;55.33;48.80;68.54;;
77133;Laerm;26708;50.304;19.028;2023-07-16T12:51:45;52.61;48.54;63.27;;
77133;Laerm;26708;50.304;19.028;2023-07-16T12:53:49;52.71;49.27;63.58;;
77133;Laerm;26708;50.304;19.028;2023-07-16T12:55:54;55.86;48.90;69.09;;
77133;Laerm;26708;50.304;19.028;2023-07-16T12:58:00;52.97;48.59;63.63;;
77133;Laerm;26708;50.304;19.028;2023-07-16T13:14:47;54.97;48.18;70.62;;
77133;Laerm;26708;50.304;19.028;2023-07-16T13:16:53;51.34;48.11;74.35;;
77133;Laerm;26708;50.304;19.028;2023-07-16T13:18:57;52.46;47.73;66.53;;
77133;Laerm;26708;50.304;19.028;2023-07-16T13:21:02;54.16;48.67;67.19;;
77133;Laerm;26708;50.304;19.028;2023-07-16T13:34:39;53.33;49.41;65.83;;
77133;Laerm;26708;50.304;19.028;2023-07-16T13:36:44;51.69;49.23;56.64;;
77133;Laerm;26708;50.304;19.028;2023-07-16T13:38:49;53.48;49.08;67.01;;
77133;Laerm;26708;50.304;19.028;2023-07-16T13:40:54;56.65;49.08;70.00;;
77133;Laerm;26708;50.304;19.028;2023-07-16T13:43:00;58.33;49.26;75.36;;
77133;Laerm;26708;50.304;19.028;2023-07-16T13:48:09;53.90;49.10;64.56;;
77133;Laerm;26708;50.304;19.028;2023-07-16T13:54:02;54.50;49.09;67.40;;
77133;Laerm;26708;50.304;19.028;2023-07-16T13:56:41;55.68;49.47;65.69;;
77133;Laerm;26708;50.304;19.028;2023-07-16T13:58:47;54.05;49.12;65.45;;
77133;Laerm;26708;50.304;19.028;2023-07-16T14:00:52;54.84;48.70;70.06;;
77133;Laerm;26708;50.304;19.028;2023-07-16T14:11:35;52.98;49.08;63.66;;
77133;Laerm;26708;50.304;19.028;2023-07-16T14:13:41;55.10;49.37;69.91;;
77133;Laerm;26708;50.304;19.028;2023-07-16T14:15:45;56.00;48.64;68.22;;
77133;Laerm;26708;50.304;19.028;2023-07-16T14:17:51;55.90;49.00;68.89;;
77133;Laerm;26708;50.304;19.028;2023-07-16T14:25:43;52.82;48.86;64.07;;
77133;Laerm;26708;50.304;19.028;2023-07-16T14:27:51;52.14;48.84;62.81;;
77133;Laerm;26708;50.304;19.028;2023-07-16T14:29:56;52.66;48.92;64.24;;
77133;Laerm;26708;50.304;19.028;2023-07-16T14:31:58;51.92;49.11;63.37;;
77133;Laerm;26708;50.304;19.028;2023-07-16T14:34:04;53.89;49.07;65.55;;
77133;Laerm;26708;50.304;19.028;2023-07-16T14:36:15;55.45;49.23;66.43;;
77133;Laerm;26708;50.304;19.028;2023-07-16T14:38:20;56.21;49.04;70.25;;
77133;Laerm;26708;50.304;19.028;2023-07-16T14:40:26;56.98;49.33;72.01;;
77133;Laerm;26708;50.304;19.028;2023-07-16T14:42:30;57.02;49.23;72.67;;
77133;Laerm;26708;50.304;19.028;2023-07-16T14:44:37;51.81;49.03;57.54;;
77133;Laerm;26708;50.304;19.028;2023-07-16T14:46:43;56.98;48.96;71.58;;
77133;Laerm;26708;50.304;19.028;2023-07-16T14:48:47;52.68;48.97;66.96;;
77133;Laerm;26708;50.304;19.028;2023-07-16T14:50:53;54.79;49.15;69.61;;
77133;Laerm;26708;50.304;19.028;2023-07-16T14:52:59;52.79;49.15;67.00;;
77133;Laerm;26708;50.304;19.028;2023-07-16T14:55:05;54.05;49.06;64.87;;
77133;Laerm;26708;50.304;19.028;2023-07-16T14:57:09;55.02;48.91;65.76;;
77133;Laerm;26708;50.304;19.028;2023-07-16T14:59:15;52.81;48.72;65.48;;
77133;Laerm;26708;50.304;19.028;2023-07-16T15:01:22;53.57;49.55;71.36;;
77133;Laerm;26708;50.304;19.028;2023-07-16T15:03:24;52.87;49.21;64.44;;